sensor_id;sensor_type;location;lat;lon;timestamp;P1;durP1;ratioP1;P2;durP2;ratioP2
49614;SDS011;35517;45.272;9.984;2022-12-05T00:03:38;34.65;;;18.50;;
49614;SDS011;35517;45.272;9.984;2022-12-05T00:06:05;35.03;;;19.45;;
49614;SDS011;35517;45.272;9.984;2022-12-05T00:08:31;33.17;;;18.42;;
49614;SDS011;35517;45.272;9.984;2022-12-05T00:10:58;29.67;;;17.77;;
49614;SDS011;35517;45.272;9.984;2022-12-05T00:13:24;33.78;;;17.52;;
49614;SDS011;35517;45.272;9.984;2022-12-05T00:15:51;35.70;;;18.35;;
49614;SDS011;35517;45.272;9.984;2022-12-05T00:18:18;31.38;;;17.63;;
49614;SDS011;35517;45.272;9.984;2022-12-05T00:20:45;34.85;;;18.73;;
49614;SDS011;35517;45.272;9.984;2022-12-05T00:23:11;31.95;;;18.17;;
49614;SDS011;35517;45.272;9.984;2022-12-05T00:25:38;30.50;;;16.35;;
49614;SDS011;35517;45.272;9.984;2022-12-05T00:28:05;32.65;;;16.73;;
49614;SDS011;35517;45.272;9.984;2022-12-05T00:30:32;31.25;;;17.42;;
49614;SDS011;35517;45.272;9.984;2022-12-05T00:32:58;32.65;;;17.33;;
49614;SDS011;35517;45.272;9.984;2022-12-05T00:35:25;31.73;;;17.50;;
49614;SDS011;35517;45.272;9.984;2022-12-05T00:37:51;28.30;;;16.15;;
49614;SDS011;35517;45.272;9.984;2022-12-05T00:40:18;32.83;;;17.55;;
49614;SDS011;35517;45.272;9.984;2022-12-05T00:42:44;35.10;;;18.30;;
49614;SDS011;35517;45.272;9.984;2022-12-05T00:45:11;32.88;;;17.55;;
49614;SDS011;35517;45.272;9.984;2022-12-05T00:47:37;33.00;;;18.02;;
49614;SDS011;35517;45.272;9.984;2022-12-05T00:50:04;36.13;;;19.30;;
49614;SDS011;35517;45.272;9.984;2022-12-05T00:52:31;35.13;;;18.80;;
49614;SDS011;35517;45.272;9.984;2022-12-05T00:54:57;32.28;;;17.40;;
49614;SDS011;35517;45.272;9.984;2022-12-05T00:57:24;31.20;;;17.42;;
49614;SDS011;35517;45.272;9.984;2022-12-05T00:59:51;34.35;;;18.70;;
49614;SDS011;35517;45.272;9.984;2022-12-05T01:02:18;35.78;;;18.98;;
49614;SDS011;35517;45.272;9.984;2022-12-05T01:04:45;31.48;;;18.00;;
49614;SDS011;35517;45.272;9.984;2022-12-05T01:07:11;34.63;;;19.25;;
49614;SDS011;35517;45.272;9.984;2022-12-05T01:09:38;38.28;;;18.27;;
49614;SDS011;35517;45.272;9.984;2022-12-05T01:12:05;33.70;;;18.15;;
49614;SDS011;35517;45.272;9.984;2022-12-05T01:14:31;29.75;;;16.42;;
49614;SDS011;35517;45.272;9.984;2022-12-05T01:16:59;40.83;;;18.05;;
49614;SDS011;35517;45.272;9.984;2022-12-05T01:19:26;33.42;;;17.48;;
49614;SDS011;35517;45.272;9.984;2022-12-05T01:21:54;32.33;;;18.05;;
49614;SDS011;35517;45.272;9.984;2022-12-05T01:24:21;29.15;;;17.15;;
49614;SDS011;35517;45.272;9.984;2022-12-05T01:26:48;32.85;;;18.27;;
49614;SDS011;35517;45.272;9.984;2022-12-05T01:29:16;33.25;;;16.90;;
49614;SDS011;35517;45.272;9.984;2022-12-05T01:31:43;34.15;;;18.38;;
49614;SDS011;35517;45.272;9.984;2022-12-05T01:34:10;32.45;;;17.65;;
49614;SDS011;35517;45.272;9.984;2022-12-05T01:36:38;28.52;;;16.02;;
49614;SDS011;35517;45.272;9.984;2022-12-05T01:39:05;24.60;;;14.63;;
49614;SDS011;35517;45.272;9.984;2022-12-05T01:41:33;29.65;;;17.08;;
49614;SDS011;35517;45.272;9.984;2022-12-05T01:44:02;28.50;;;14.55;;
49614;SDS011;35517;45.272;9.984;2022-12-05T01:46:30;28.67;;;13.63;;
49614;SDS011;35517;45.272;9.984;2022-12-05T01:49:02;31.15;;;15.60;;
49614;SDS011;35517;45.272;9.984;2022-12-05T01:51:29;25.30;;;14.80;;
49614;SDS011;35517;45.272;9.984;2022-12-05T01:53:56;24.35;;;15.18;;
49614;SDS011;35517;45.272;9.984;2022-12-05T01:56:22;29.80;;;15.50;;
49614;SDS011;35517;45.272;9.984;2022-12-05T01:58:49;28.67;;;13.77;;
49614;SDS011;35517;45.272;9.984;2022-12-05T02:01:16;24.38;;;14.18;;
49614;SDS011;35517;45.272;9.984;2022-12-05T02:03:43;25.88;;;14.65;;
49614;SDS011;35517;45.272;9.984;2022-12-05T02:06:11;25.02;;;13.00;;
49614;SDS011;35517;45.272;9.984;2022-12-05T02:08:39;28.63;;;15.82;;
49614;SDS011;35517;45.272;9.984;2022-12-05T02:11:06;23.02;;;12.68;;
49614;SDS011;35517;45.272;9.984;2022-12-05T02:32:10;22.92;;;12.57;;
49614;SDS011;35517;45.272;9.984;2022-12-05T02:34:46;16.77;;;9.95;;
49614;SDS011;35517;45.272;9.984;2022-12-05T02:37:33;21.85;;;12.13;;
49614;SDS011;35517;45.272;9.984;2022-12-05T02:42:44;15.75;;;10.52;;
49614;SDS011;35517;45.272;9.984;2022-12-05T02:45:14;16.52;;;11.63;;
49614;SDS011;35517;45.272;9.984;2022-12-05T02:47:49;17.00;;;10.73;;
49614;SDS011;35517;45.272;9.984;2022-12-05T02:50:18;17.45;;;11.10;;
49614;SDS011;35517;45.272;9.984;2022-12-05T02:52:46;17.50;;;11.18;;
49614;SDS011;35517;45.272;9.984;2022-12-05T02:55:14;18.20;;;12.52;;
49614;SDS011;35517;45.272;9.984;2022-12-05T02:57:42;20.10;;;11.70;;
49614;SDS011;35517;45.272;9.984;2022-12-05T03:00:10;18.00;;;10.88;;
49614;SDS011;35517;45.272;9.984;2022-12-05T03:02:37;17.17;;;10.98;;
49614;SDS011;35517;45.272;9.984;2022-12-05T03:07:51;18.50;;;10.13;;
49614;SDS011;35517;45.272;9.984;2022-12-05T03:10:20;19.73;;;11.23;;
49614;SDS011;35517;45.272;9.984;2022-12-05T03:12:52;17.50;;;10.45;;
49614;SDS011;35517;45.272;9.984;2022-12-05T03:15:22;14.65;;;9.65;;
49614;SDS011;35517;45.272;9.984;2022-12-05T03:17:53;17.00;;;10.52;;
49614;SDS011;35517;45.272;9.984;2022-12-05T03:23:35;14.93;;;9.07;;
49614;SDS011;35517;45.272;9.984;2022-12-05T03:31:10;13.90;;;9.50;;
49614;SDS011;35517;45.272;9.984;2022-12-05T03:33:40;17.55;;;10.88;;
49614;SDS011;35517;45.272;9.984;2022-12-05T03:36:14;16.00;;;9.40;;
49614;SDS011;35517;45.272;9.984;2022-12-05T03:38:50;15.70;;;10.98;;
49614;SDS011;35517;45.272;9.984;2022-12-05T03:41:23;15.27;;;10.07;;
49614;SDS011;35517;45.272;9.984;2022-12-05T03:43:54;14.18;;;10.00;;
49614;SDS011;35517;45.272;9.984;2022-12-05T03:46:30;16.17;;;10.88;;
49614;SDS011;35517;45.272;9.984;2022-12-05T03:51:29;15.25;;;10.23;;
49614;SDS011;35517;45.272;9.984;2022-12-05T03:54:05;15.68;;;11.32;;
49614;SDS011;35517;45.272;9.984;2022-12-05T03:56:40;16.35;;;10.20;;
49614;SDS011;35517;45.272;9.984;2022-12-05T03:59:53;16.60;;;11.57;;
49614;SDS011;35517;45.272;9.984;2022-12-05T04:01:59;13.48;;;9.80;;
49614;SDS011;35517;45.272;9.984;2022-12-05T04:04:29;17.48;;;11.07;;
49614;SDS011;35517;45.272;9.984;2022-12-05T04:06:59;17.20;;;11.57;;
49614;SDS011;35517;45.272;9.984;2022-12-05T04:09:33;15.20;;;11.02;;
49614;SDS011;35517;45.272;9.984;2022-12-05T04:12:02;17.48;;;11.38;;
49614;SDS011;35517;45.272;9.984;2022-12-05T04:14:40;15.27;;;10.60;;
49614;SDS011;35517;45.272;9.984;2022-12-05T04:17:32;16.67;;;11.05;;
49614;SDS011;35517;45.272;9.984;2022-12-05T04:19:56;19.67;;;10.93;;
49614;SDS011;35517;45.272;9.984;2022-12-05T04:22:43;19.05;;;12.15;;
49614;SDS011;35517;45.272;9.984;2022-12-05T04:25:11;16.67;;;11.13;;
49614;SDS011;35517;45.272;9.984;2022-12-05T04:30:24;16.75;;;12.32;;
49614;SDS011;35517;45.272;9.984;2022-12-05T04:35:29;14.48;;;10.45;;
49614;SDS011;35517;45.272;9.984;2022-12-05T04:37:59;13.63;;;10.32;;
49614;SDS011;35517;45.272;9.984;2022-12-05T04:40:37;15.93;;;11.18;;
49614;SDS011;35517;45.272;9.984;2022-12-05T04:43:05;15.95;;;10.80;;
49614;SDS011;35517;45.272;9.984;2022-12-05T04:45:32;16.30;;;10.70;;
49614;SDS011;35517;45.272;9.984;2022-12-05T04:48:01;17.58;;;10.57;;
49614;SDS011;35517;45.272;9.984;2022-12-05T04:50:30;17.45;;;11.55;;
49614;SDS011;35517;45.272;9.984;2022-12-05T04:52:57;15.05;;;10.95;;
49614;SDS011;35517;45.272;9.984;2022-12-05T04:55:25;25.98;;;11.60;;
49614;SDS011;35517;45.272;9.984;2022-12-05T04:58:08;14.82;;;11.27;;
49614;SDS011;35517;45.272;9.984;2022-12-05T05:01:37;14.02;;;10.70;;
49614;SDS011;35517;45.272;9.984;2022-12-05T05:03:37;13.40;;;9.43;;
49614;SDS011;35517;45.272;9.984;2022-12-05T05:06:05;14.32;;;10.65;;
49614;SDS011;35517;45.272;9.984;2022-12-05T05:08:32;18.48;;;11.07;;
49614;SDS011;35517;45.272;9.984;2022-12-05T05:13:55;15.25;;;10.85;;
49614;SDS011;35517;45.272;9.984;2022-12-05T05:16:23;13.18;;;9.85;;
49614;SDS011;35517;45.272;9.984;2022-12-05T05:18:50;14.05;;;9.20;;
49614;SDS011;35517;45.272;9.984;2022-12-05T05:21:22;15.13;;;9.48;;
49614;SDS011;35517;45.272;9.984;2022-12-05T05:23:49;13.05;;;9.88;;
49614;SDS011;35517;45.272;9.984;2022-12-05T05:26:16;15.43;;;10.27;;
49614;SDS011;35517;45.272;9.984;2022-12-05T05:28:43;14.15;;;9.80;;
49614;SDS011;35517;45.272;9.984;2022-12-05T05:31:10;11.70;;;9.25;;
49614;SDS011;35517;45.272;9.984;2022-12-05T05:33:37;13.55;;;10.32;;
49614;SDS011;35517;45.272;9.984;2022-12-05T05:36:08;13.25;;;10.38;;
49614;SDS011;35517;45.272;9.984;2022-12-05T05:38:45;16.23;;;10.43;;
49614;SDS011;35517;45.272;9.984;2022-12-05T05:41:13;14.93;;;8.75;;
49614;SDS011;35517;45.272;9.984;2022-12-05T05:43:40;13.98;;;10.13;;
49614;SDS011;35517;45.272;9.984;2022-12-05T05:46:07;12.77;;;9.35;;
49614;SDS011;35517;45.272;9.984;2022-12-05T05:48:34;14.60;;;10.35;;
49614;SDS011;35517;45.272;9.984;2022-12-05T05:51:01;17.05;;;12.57;;
49614;SDS011;35517;45.272;9.984;2022-12-05T05:53:27;16.77;;;11.70;;
49614;SDS011;35517;45.272;9.984;2022-12-05T05:55:54;15.45;;;10.40;;
49614;SDS011;35517;45.272;9.984;2022-12-05T05:58:21;16.98;;;10.25;;
49614;SDS011;35517;45.272;9.984;2022-12-05T06:00:48;15.55;;;11.27;;
49614;SDS011;35517;45.272;9.984;2022-12-05T06:03:14;14.88;;;11.15;;
49614;SDS011;35517;45.272;9.984;2022-12-05T06:05:41;14.60;;;10.95;;
49614;SDS011;35517;45.272;9.984;2022-12-05T06:08:07;16.08;;;11.57;;
49614;SDS011;35517;45.272;9.984;2022-12-05T06:10:34;16.60;;;11.35;;
49614;SDS011;35517;45.272;9.984;2022-12-05T06:13:01;17.35;;;12.43;;
49614;SDS011;35517;45.272;9.984;2022-12-05T06:15:28;25.70;;;12.80;;
49614;SDS011;35517;45.272;9.984;2022-12-05T06:17:55;20.10;;;12.30;;
49614;SDS011;35517;45.272;9.984;2022-12-05T06:20:21;22.92;;;12.75;;
49614;SDS011;35517;45.272;9.984;2022-12-05T06:22:48;17.33;;;12.15;;
49614;SDS011;35517;45.272;9.984;2022-12-05T06:25:15;21.20;;;12.43;;
49614;SDS011;35517;45.272;9.984;2022-12-05T06:27:42;20.23;;;12.75;;
49614;SDS011;35517;45.272;9.984;2022-12-05T06:30:09;21.58;;;12.52;;
49614;SDS011;35517;45.272;9.984;2022-12-05T06:32:35;22.52;;;14.18;;
49614;SDS011;35517;45.272;9.984;2022-12-05T06:35:02;16.63;;;12.43;;
49614;SDS011;35517;45.272;9.984;2022-12-05T06:37:36;18.67;;;12.60;;
49614;SDS011;35517;45.272;9.984;2022-12-05T06:40:03;21.10;;;13.00;;
49614;SDS011;35517;45.272;9.984;2022-12-05T06:42:30;18.65;;;13.52;;
49614;SDS011;35517;45.272;9.984;2022-12-05T06:44:56;18.55;;;13.10;;
49614;SDS011;35517;45.272;9.984;2022-12-05T06:47:23;21.17;;;14.80;;
49614;SDS011;35517;45.272;9.984;2022-12-05T06:49:49;17.30;;;12.32;;
49614;SDS011;35517;45.272;9.984;2022-12-05T06:52:16;21.45;;;13.35;;
49614;SDS011;35517;45.272;9.984;2022-12-05T06:54:42;16.80;;;11.50;;
49614;SDS011;35517;45.272;9.984;2022-12-05T06:57:11;18.55;;;12.77;;
49614;SDS011;35517;45.272;9.984;2022-12-05T06:59:38;15.48;;;12.20;;
49614;SDS011;35517;45.272;9.984;2022-12-05T07:02:04;16.45;;;12.15;;
49614;SDS011;35517;45.272;9.984;2022-12-05T07:04:34;18.83;;;14.40;;
49614;SDS011;35517;45.272;9.984;2022-12-05T07:07:01;18.77;;;12.18;;
49614;SDS011;35517;45.272;9.984;2022-12-05T07:09:27;17.17;;;11.45;;
49614;SDS011;35517;45.272;9.984;2022-12-05T07:12:14;16.88;;;11.93;;
49614;SDS011;35517;45.272;9.984;2022-12-05T07:14:41;17.00;;;11.07;;
49614;SDS011;35517;45.272;9.984;2022-12-05T07:17:07;20.33;;;11.63;;
49614;SDS011;35517;45.272;9.984;2022-12-05T07:19:34;13.75;;;10.65;;
49614;SDS011;35517;45.272;9.984;2022-12-05T07:22:01;14.88;;;11.65;;
49614;SDS011;35517;45.272;9.984;2022-12-05T07:24:27;15.18;;;11.70;;
49614;SDS011;35517;45.272;9.984;2022-12-05T07:26:54;18.25;;;11.10;;
49614;SDS011;35517;45.272;9.984;2022-12-05T07:29:20;13.52;;;10.15;;
49614;SDS011;35517;45.272;9.984;2022-12-05T07:31:47;15.40;;;10.43;;
49614;SDS011;35517;45.272;9.984;2022-12-05T07:34:13;15.00;;;9.90;;
49614;SDS011;35517;45.272;9.984;2022-12-05T07:36:40;13.60;;;10.10;;
49614;SDS011;35517;45.272;9.984;2022-12-05T07:39:06;12.23;;;10.25;;
49614;SDS011;35517;45.272;9.984;2022-12-05T07:41:33;14.95;;;11.00;;
49614;SDS011;35517;45.272;9.984;2022-12-05T07:44:05;13.90;;;10.23;;
49614;SDS011;35517;45.272;9.984;2022-12-05T07:46:32;15.70;;;11.70;;
49614;SDS011;35517;45.272;9.984;2022-12-05T07:48:59;17.67;;;12.35;;
49614;SDS011;35517;45.272;9.984;2022-12-05T07:51:25;17.55;;;12.18;;
49614;SDS011;35517;45.272;9.984;2022-12-05T07:53:52;17.40;;;12.55;;
49614;SDS011;35517;45.272;9.984;2022-12-05T07:56:19;19.30;;;13.55;;
49614;SDS011;35517;45.272;9.984;2022-12-05T07:58:47;16.90;;;12.55;;
49614;SDS011;35517;45.272;9.984;2022-12-05T08:01:15;19.23;;;12.50;;
49614;SDS011;35517;45.272;9.984;2022-12-05T08:03:42;18.23;;;13.15;;
49614;SDS011;35517;45.272;9.984;2022-12-05T08:06:13;19.20;;;12.77;;
49614;SDS011;35517;45.272;9.984;2022-12-05T08:08:39;22.40;;;13.20;;
49614;SDS011;35517;45.272;9.984;2022-12-05T08:11:08;17.35;;;11.63;;
49614;SDS011;35517;45.272;9.984;2022-12-05T08:13:34;23.08;;;12.75;;
49614;SDS011;35517;45.272;9.984;2022-12-05T08:16:04;16.33;;;10.80;;
49614;SDS011;35517;45.272;9.984;2022-12-05T08:18:31;16.77;;;11.43;;
49614;SDS011;35517;45.272;9.984;2022-12-05T08:21:05;16.48;;;11.75;;
49614;SDS011;35517;45.272;9.984;2022-12-05T08:23:32;14.95;;;11.02;;
49614;SDS011;35517;45.272;9.984;2022-12-05T08:26:00;14.20;;;9.60;;
49614;SDS011;35517;45.272;9.984;2022-12-05T08:28:26;14.48;;;10.32;;
49614;SDS011;35517;45.272;9.984;2022-12-05T08:30:53;13.30;;;10.02;;
49614;SDS011;35517;45.272;9.984;2022-12-05T08:33:19;14.60;;;9.25;;
49614;SDS011;35517;45.272;9.984;2022-12-05T08:35:46;15.82;;;11.45;;
49614;SDS011;35517;45.272;9.984;2022-12-05T08:38:12;14.25;;;9.50;;
49614;SDS011;35517;45.272;9.984;2022-12-05T08:40:39;11.00;;;9.05;;
49614;SDS011;35517;45.272;9.984;2022-12-05T08:43:06;14.00;;;9.57;;
49614;SDS011;35517;45.272;9.984;2022-12-05T08:45:32;15.32;;;9.70;;
49614;SDS011;35517;45.272;9.984;2022-12-05T08:47:59;15.93;;;10.23;;
49614;SDS011;35517;45.272;9.984;2022-12-05T08:50:25;14.82;;;11.70;;
49614;SDS011;35517;45.272;9.984;2022-12-05T08:52:52;16.08;;;12.38;;
49614;SDS011;35517;45.272;9.984;2022-12-05T08:55:19;21.08;;;15.80;;
49614;SDS011;35517;45.272;9.984;2022-12-05T08:57:45;18.33;;;12.77;;
49614;SDS011;35517;45.272;9.984;2022-12-05T09:00:12;18.35;;;12.13;;
49614;SDS011;35517;45.272;9.984;2022-12-05T09:02:38;15.70;;;12.93;;
49614;SDS011;35517;45.272;9.984;2022-12-05T09:05:05;17.90;;;11.98;;
49614;SDS011;35517;45.272;9.984;2022-12-05T09:07:33;17.67;;;13.38;;
49614;SDS011;35517;45.272;9.984;2022-12-05T09:09:59;17.77;;;12.73;;
49614;SDS011;35517;45.272;9.984;2022-12-05T09:12:26;21.70;;;13.88;;
49614;SDS011;35517;45.272;9.984;2022-12-05T09:14:53;17.58;;;12.38;;
49614;SDS011;35517;45.272;9.984;2022-12-05T09:17:19;18.30;;;13.60;;
49614;SDS011;35517;45.272;9.984;2022-12-05T09:19:49;22.80;;;14.25;;
49614;SDS011;35517;45.272;9.984;2022-12-05T09:22:15;19.27;;;12.57;;
49614;SDS011;35517;45.272;9.984;2022-12-05T09:24:42;19.33;;;13.60;;
49614;SDS011;35517;45.272;9.984;2022-12-05T09:27:09;18.42;;;11.63;;
49614;SDS011;35517;45.272;9.984;2022-12-05T09:29:35;26.98;;;16.38;;
49614;SDS011;35517;45.272;9.984;2022-12-05T09:32:02;30.80;;;19.42;;
49614;SDS011;35517;45.272;9.984;2022-12-05T09:34:29;26.42;;;16.15;;
49614;SDS011;35517;45.272;9.984;2022-12-05T09:36:55;33.60;;;19.67;;
49614;SDS011;35517;45.272;9.984;2022-12-05T09:39:22;22.75;;;16.17;;
49614;SDS011;35517;45.272;9.984;2022-12-05T09:44:42;20.52;;;14.95;;
49614;SDS011;35517;45.272;9.984;2022-12-05T09:47:52;26.05;;;14.48;;
49614;SDS011;35517;45.272;9.984;2022-12-05T09:52:30;26.92;;;13.68;;
49614;SDS011;35517;45.272;9.984;2022-12-05T09:55:03;22.63;;;14.57;;
49614;SDS011;35517;45.272;9.984;2022-12-05T09:57:35;19.83;;;13.88;;
49614;SDS011;35517;45.272;9.984;2022-12-05T10:00:04;23.45;;;15.40;;
49614;SDS011;35517;45.272;9.984;2022-12-05T10:11:17;19.52;;;14.48;;
49614;SDS011;35517;45.272;9.984;2022-12-05T10:13:26;20.63;;;14.73;;
49614;SDS011;35517;45.272;9.984;2022-12-05T10:15:58;19.75;;;15.48;;
49614;SDS011;35517;45.272;9.984;2022-12-05T10:18:31;20.17;;;13.43;;
49614;SDS011;35517;45.272;9.984;2022-12-05T10:21:01;30.15;;;14.90;;
49614;SDS011;35517;45.272;9.984;2022-12-05T10:26:14;29.98;;;16.17;;
49614;SDS011;35517;45.272;9.984;2022-12-05T10:31:12;37.25;;;16.80;;
49614;SDS011;35517;45.272;9.984;2022-12-05T10:33:43;31.60;;;17.35;;
49614;SDS011;35517;45.272;9.984;2022-12-05T10:39:01;29.80;;;15.98;;
49614;SDS011;35517;45.272;9.984;2022-12-05T10:41:29;27.13;;;15.35;;
49614;SDS011;35517;45.272;9.984;2022-12-05T10:43:56;26.92;;;16.05;;
49614;SDS011;35517;45.272;9.984;2022-12-05T10:46:24;36.97;;;17.63;;
49614;SDS011;35517;45.272;9.984;2022-12-05T10:48:51;34.88;;;15.90;;
49614;SDS011;35517;45.272;9.984;2022-12-05T10:51:19;35.88;;;16.15;;
49614;SDS011;35517;45.272;9.984;2022-12-05T10:53:49;36.90;;;18.95;;
49614;SDS011;35517;45.272;9.984;2022-12-05T10:59:02;49.72;;;24.80;;
49614;SDS011;35517;45.272;9.984;2022-12-05T11:01:29;41.90;;;22.65;;
49614;SDS011;35517;45.272;9.984;2022-12-05T11:04:00;38.03;;;18.38;;
49614;SDS011;35517;45.272;9.984;2022-12-05T11:06:28;37.58;;;18.13;;
49614;SDS011;35517;45.272;9.984;2022-12-05T11:08:56;38.45;;;17.55;;
49614;SDS011;35517;45.272;9.984;2022-12-05T11:11:25;44.72;;;18.05;;
49614;SDS011;35517;45.272;9.984;2022-12-05T11:13:56;44.72;;;16.75;;
49614;SDS011;35517;45.272;9.984;2022-12-05T11:16:24;37.50;;;17.42;;
49614;SDS011;35517;45.272;9.984;2022-12-05T11:18:51;42.60;;;18.88;;
49614;SDS011;35517;45.272;9.984;2022-12-05T11:21:18;41.33;;;18.00;;
49614;SDS011;35517;45.272;9.984;2022-12-05T11:23:46;36.15;;;18.63;;
49614;SDS011;35517;45.272;9.984;2022-12-05T11:26:46;41.15;;;17.70;;
49614;SDS011;35517;45.272;9.984;2022-12-05T11:29:26;32.33;;;17.25;;
49614;SDS011;35517;45.272;9.984;2022-12-05T11:31:53;41.20;;;16.02;;
49614;SDS011;35517;45.272;9.984;2022-12-05T11:34:21;39.72;;;16.40;;
49614;SDS011;35517;45.272;9.984;2022-12-05T11:36:55;33.35;;;17.52;;
49614;SDS011;35517;45.272;9.984;2022-12-05T11:39:23;37.55;;;16.08;;
49614;SDS011;35517;45.272;9.984;2022-12-05T11:55:07;26.75;;;15.55;;
49614;SDS011;35517;45.272;9.984;2022-12-05T12:05:45;32.63;;;15.15;;
49614;SDS011;35517;45.272;9.984;2022-12-05T12:15:52;24.20;;;13.93;;
49614;SDS011;35517;45.272;9.984;2022-12-05T12:18:33;27.98;;;16.60;;
49614;SDS011;35517;45.272;9.984;2022-12-05T12:21:16;25.52;;;14.00;;
49614;SDS011;35517;45.272;9.984;2022-12-05T12:37:12;18.23;;;11.20;;
49614;SDS011;35517;45.272;9.984;2022-12-05T12:52:23;18.35;;;10.20;;
49614;SDS011;35517;45.272;9.984;2022-12-05T13:00:26;15.90;;;9.10;;
49614;SDS011;35517;45.272;9.984;2022-12-05T13:02:58;15.25;;;10.10;;
49614;SDS011;35517;45.272;9.984;2022-12-05T13:08:25;20.10;;;10.02;;
49614;SDS011;35517;45.272;9.984;2022-12-05T13:10:52;21.73;;;11.60;;
49614;SDS011;35517;45.272;9.984;2022-12-05T13:13:24;16.88;;;9.07;;
49614;SDS011;35517;45.272;9.984;2022-12-05T13:15:56;15.93;;;8.90;;
49614;SDS011;35517;45.272;9.984;2022-12-05T13:18:25;17.90;;;9.65;;
49614;SDS011;35517;45.272;9.984;2022-12-05T13:20:56;16.02;;;10.23;;
49614;SDS011;35517;45.272;9.984;2022-12-05T13:23:26;17.40;;;10.57;;
49614;SDS011;35517;45.272;9.984;2022-12-05T13:25:53;15.68;;;9.82;;
49614;SDS011;35517;45.272;9.984;2022-12-05T13:31:03;14.90;;;10.20;;
49614;SDS011;35517;45.272;9.984;2022-12-05T13:36:30;15.82;;;9.10;;
49614;SDS011;35517;45.272;9.984;2022-12-05T13:41:57;17.48;;;10.98;;
49614;SDS011;35517;45.272;9.984;2022-12-05T13:44:57;18.83;;;10.25;;
49614;SDS011;35517;45.272;9.984;2022-12-05T13:55:28;17.38;;;10.23;;
49614;SDS011;35517;45.272;9.984;2022-12-05T13:58:01;15.55;;;8.85;;
49614;SDS011;35517;45.272;9.984;2022-12-05T14:00:28;17.35;;;10.02;;
49614;SDS011;35517;45.272;9.984;2022-12-05T14:02:56;20.92;;;11.18;;
49614;SDS011;35517;45.272;9.984;2022-12-05T14:07:56;17.77;;;11.43;;
49614;SDS011;35517;45.272;9.984;2022-12-05T14:11:09;18.52;;;13.55;;
49614;SDS011;35517;45.272;9.984;2022-12-05T14:15:41;17.42;;;9.95;;
49614;SDS011;35517;45.272;9.984;2022-12-05T14:21:07;16.13;;;9.98;;
49614;SDS011;35517;45.272;9.984;2022-12-05T14:36:51;25.67;;;12.60;;
49614;SDS011;35517;45.272;9.984;2022-12-05T14:39:21;19.27;;;9.63;;
49614;SDS011;35517;45.272;9.984;2022-12-05T14:41:55;19.20;;;10.50;;
49614;SDS011;35517;45.272;9.984;2022-12-05T14:44:22;19.25;;;10.13;;
49614;SDS011;35517;45.272;9.984;2022-12-05T14:46:53;19.27;;;10.95;;
49614;SDS011;35517;45.272;9.984;2022-12-05T14:52:09;17.73;;;10.25;;
49614;SDS011;35517;45.272;9.984;2022-12-05T14:54:43;23.65;;;12.65;;
49614;SDS011;35517;45.272;9.984;2022-12-05T14:57:12;21.73;;;11.60;;
49614;SDS011;35517;45.272;9.984;2022-12-05T15:02:25;68.07;;;35.35;;
49614;SDS011;35517;45.272;9.984;2022-12-05T15:04:55;47.47;;;32.88;;
49614;SDS011;35517;45.272;9.984;2022-12-05T15:07:32;24.23;;;15.63;;
49614;SDS011;35517;45.272;9.984;2022-12-05T15:10:05;23.27;;;11.40;;
49614;SDS011;35517;45.272;9.984;2022-12-05T15:12:40;28.92;;;13.38;;
49614;SDS011;35517;45.272;9.984;2022-12-05T15:17:42;21.80;;;12.13;;
49614;SDS011;35517;45.272;9.984;2022-12-05T15:20:17;22.02;;;11.77;;
49614;SDS011;35517;45.272;9.984;2022-12-05T15:22:45;27.15;;;13.45;;
49614;SDS011;35517;45.272;9.984;2022-12-05T15:25:47;22.75;;;12.55;;
49614;SDS011;35517;45.272;9.984;2022-12-05T15:28:16;31.00;;;15.25;;
49614;SDS011;35517;45.272;9.984;2022-12-05T15:30:43;30.05;;;14.15;;
49614;SDS011;35517;45.272;9.984;2022-12-05T15:33:19;32.05;;;13.55;;
49614;SDS011;35517;45.272;9.984;2022-12-05T15:35:46;27.85;;;15.43;;
49614;SDS011;35517;45.272;9.984;2022-12-05T15:38:25;27.23;;;14.07;;
49614;SDS011;35517;45.272;9.984;2022-12-05T15:40:53;34.28;;;14.32;;
49614;SDS011;35517;45.272;9.984;2022-12-05T15:43:30;35.35;;;15.52;;
49614;SDS011;35517;45.272;9.984;2022-12-05T15:48:44;31.88;;;14.05;;
49614;SDS011;35517;45.272;9.984;2022-12-05T15:51:11;36.17;;;16.23;;
49614;SDS011;35517;45.272;9.984;2022-12-05T15:53:55;38.97;;;15.75;;
49614;SDS011;35517;45.272;9.984;2022-12-05T16:01:18;36.95;;;16.65;;
49614;SDS011;35517;45.272;9.984;2022-12-05T16:03:47;35.45;;;15.35;;
49614;SDS011;35517;45.272;9.984;2022-12-05T16:07:02;31.35;;;14.80;;
49614;SDS011;35517;45.272;9.984;2022-12-05T16:09:05;32.40;;;13.73;;
49614;SDS011;35517;45.272;9.984;2022-12-05T16:11:33;30.55;;;14.43;;
49614;SDS011;35517;45.272;9.984;2022-12-05T16:14:01;31.27;;;15.02;;
49614;SDS011;35517;45.272;9.984;2022-12-05T16:16:29;31.73;;;13.00;;
49614;SDS011;35517;45.272;9.984;2022-12-05T16:18:57;34.60;;;14.55;;
49614;SDS011;35517;45.272;9.984;2022-12-05T16:21:32;34.58;;;15.60;;
49614;SDS011;35517;45.272;9.984;2022-12-05T16:26:37;38.45;;;14.50;;
49614;SDS011;35517;45.272;9.984;2022-12-05T16:29:04;29.80;;;13.00;;
49614;SDS011;35517;45.272;9.984;2022-12-05T16:31:33;31.65;;;13.55;;
49614;SDS011;35517;45.272;9.984;2022-12-05T16:34:07;39.05;;;15.73;;
49614;SDS011;35517;45.272;9.984;2022-12-05T16:36:46;33.60;;;14.82;;
49614;SDS011;35517;45.272;9.984;2022-12-05T16:39:14;35.08;;;14.70;;
49614;SDS011;35517;45.272;9.984;2022-12-05T16:41:41;37.10;;;17.42;;
49614;SDS011;35517;45.272;9.984;2022-12-05T16:47:01;30.60;;;13.05;;
49614;SDS011;35517;45.272;9.984;2022-12-05T16:49:34;40.75;;;14.30;;
49614;SDS011;35517;45.272;9.984;2022-12-05T16:54:34;36.20;;;13.77;;
49614;SDS011;35517;45.272;9.984;2022-12-05T16:57:01;36.13;;;15.30;;
49614;SDS011;35517;45.272;9.984;2022-12-05T16:59:32;34.00;;;14.30;;
49614;SDS011;35517;45.272;9.984;2022-12-05T17:02:03;31.73;;;11.83;;
49614;SDS011;35517;45.272;9.984;2022-12-05T17:04:30;37.20;;;13.60;;
49614;SDS011;35517;45.272;9.984;2022-12-05T17:06:57;41.60;;;13.23;;
49614;SDS011;35517;45.272;9.984;2022-12-05T17:09:24;34.13;;;15.10;;
49614;SDS011;35517;45.272;9.984;2022-12-05T17:11:51;33.65;;;14.10;;
49614;SDS011;35517;45.272;9.984;2022-12-05T17:14:19;32.33;;;13.07;;
49614;SDS011;35517;45.272;9.984;2022-12-05T17:16:46;30.95;;;13.38;;
49614;SDS011;35517;45.272;9.984;2022-12-05T17:19:13;33.97;;;13.95;;
49614;SDS011;35517;45.272;9.984;2022-12-05T17:21:40;44.25;;;19.58;;
49614;SDS011;35517;45.272;9.984;2022-12-05T17:24:14;33.92;;;15.57;;
49614;SDS011;35517;45.272;9.984;2022-12-05T17:26:42;39.80;;;14.68;;
49614;SDS011;35517;45.272;9.984;2022-12-05T17:29:08;32.63;;;13.90;;
49614;SDS011;35517;45.272;9.984;2022-12-05T17:31:36;36.40;;;14.95;;
49614;SDS011;35517;45.272;9.984;2022-12-05T17:34:11;34.47;;;13.75;;
49614;SDS011;35517;45.272;9.984;2022-12-05T17:36:40;35.88;;;13.38;;
49614;SDS011;35517;45.272;9.984;2022-12-05T17:39:06;45.67;;;14.80;;
49614;SDS011;35517;45.272;9.984;2022-12-05T17:41:34;42.58;;;15.45;;
49614;SDS011;35517;45.272;9.984;2022-12-05T17:44:01;64.30;;;16.10;;
49614;SDS011;35517;45.272;9.984;2022-12-05T17:46:28;51.08;;;15.38;;
49614;SDS011;35517;45.272;9.984;2022-12-05T17:48:55;51.45;;;17.65;;
49614;SDS011;35517;45.272;9.984;2022-12-05T17:51:22;62.03;;;18.00;;